sensor_id;sensor_type;location;lat;lon;timestamp;temperature;humidity
21123;DHT22;10719;48.130;11.630;2022-12-11T00:01:26;-1.40;99.90
21123;DHT22;10719;48.130;11.630;2022-12-11T00:03:51;-1.40;99.90
21123;DHT22;10719;48.130;11.630;2022-12-11T00:06:19;-1.40;99.90
21123;DHT22;10719;48.130;11.630;2022-12-11T00:08:46;-1.40;99.90
21123;DHT22;10719;48.130;11.630;2022-12-11T00:11:13;-1.50;99.90
21123;DHT22;10719;48.130;11.630;2022-12-11T00:13:40;-1.40;99.90
21123;DHT22;10719;48.130;11.630;2022-12-11T00:16:06;-1.50;99.90
21123;DHT22;10719;48.130;11.630;2022-12-11T00:18:32;-1.40;99.90
21123;DHT22;10719;48.130;11.630;2022-12-11T00:21:03;-1.40;99.90
21123;DHT22;10719;48.130;11.630;2022-12-11T00:23:29;-1.40;99.90
21123;DHT22;10719;48.130;11.630;2022-12-11T00:25:55;-1.50;99.90
21123;DHT22;10719;48.130;11.630;2022-12-11T00:28:20;-1.50;99.90
21123;DHT22;10719;48.130;11.630;2022-12-11T00:30:47;-1.50;99.90
21123;DHT22;10719;48.130;11.630;2022-12-11T00:33:13;-1.50;99.90
21123;DHT22;10719;48.130;11.630;2022-12-11T00:35:41;-1.40;99.90
21123;DHT22;10719;48.130;11.630;2022-12-11T00:38:08;-1.40;99.90
21123;DHT22;10719;48.130;11.630;2022-12-11T00:40:38;-1.40;99.90
21123;DHT22;10719;48.130;11.630;2022-12-11T00:43:03;-1.50;99.90
21123;DHT22;10719;48.130;11.630;2022-12-11T00:45:29;-1.50;99.90
21123;DHT22;10719;48.130;11.630;2022-12-11T00:47:55;-1.50;99.90
21123;DHT22;10719;48.130;11.630;2022-12-11T00:50:20;-1.50;99.90
21123;DHT22;10719;48.130;11.630;2022-12-11T00:52:46;-1.50;99.90
21123;DHT22;10719;48.130;11.630;2022-12-11T00:55:11;-1.50;99.90
21123;DHT22;10719;48.130;11.630;2022-12-11T00:57:38;-1.50;99.90
21123;DHT22;10719;48.130;11.630;2022-12-11T01:00:05;-1.60;99.90
21123;DHT22;10719;48.130;11.630;2022-12-11T01:02:32;-1.60;99.90
21123;DHT22;10719;48.130;11.630;2022-12-11T01:04:58;-1.60;99.90
21123;DHT22;10719;48.130;11.630;2022-12-11T01:07:23;-1.60;99.90
21123;DHT22;10719;48.130;11.630;2022-12-11T01:09:49;-1.70;99.90
21123;DHT22;10719;48.130;11.630;2022-12-11T01:12:33;-1.70;99.90
21123;DHT22;10719;48.130;11.630;2022-12-11T01:14:59;-1.70;99.90
21123;DHT22;10719;48.130;11.630;2022-12-11T01:17:24;-1.80;99.90
21123;DHT22;10719;48.130;11.630;2022-12-11T01:19:53;-1.80;99.90
21123;DHT22;10719;48.130;11.630;2022-12-11T01:22:18;-1.80;99.90
21123;DHT22;10719;48.130;11.630;2022-12-11T01:24:44;-1.80;99.90
21123;DHT22;10719;48.130;11.630;2022-12-11T01:27:09;-1.80;99.90
21123;DHT22;10719;48.130;11.630;2022-12-11T01:29:35;-1.70;99.90
21123;DHT22;10719;48.130;11.630;2022-12-11T01:32:00;-1.70;99.90
21123;DHT22;10719;48.130;11.630;2022-12-11T01:34:28;-1.70;99.90
21123;DHT22;10719;48.130;11.630;2022-12-11T01:36:54;-1.70;99.90
21123;DHT22;10719;48.130;11.630;2022-12-11T01:39:20;-1.70;99.90
21123;DHT22;10719;48.130;11.630;2022-12-11T01:41:45;-1.70;99.90
21123;DHT22;10719;48.130;11.630;2022-12-11T01:46:39;-1.70;99.90
21123;DHT22;10719;48.130;11.630;2022-12-11T01:49:10;-1.70;99.90
21123;DHT22;10719;48.130;11.630;2022-12-11T01:51:51;-1.70;99.90
21123;DHT22;10719;48.130;11.630;2022-12-11T01:54:20;-1.70;99.90
21123;DHT22;10719;48.130;11.630;2022-12-11T01:56:47;-1.70;99.90
21123;DHT22;10719;48.130;11.630;2022-12-11T01:59:18;-1.70;99.90
21123;DHT22;10719;48.130;11.630;2022-12-11T02:04:20;-1.70;99.90
21123;DHT22;10719;48.130;11.630;2022-12-11T02:06:49;-1.70;99.90
21123;DHT22;10719;48.130;11.630;2022-12-11T02:09:19;-1.70;99.90
21123;DHT22;10719;48.130;11.630;2022-12-11T02:11:50;-1.60;99.90
21123;DHT22;10719;48.130;11.630;2022-12-11T02:17:14;-1.60;99.90
21123;DHT22;10719;48.130;11.630;2022-12-11T02:22:13;-1.60;99.90
21123;DHT22;10719;48.130;11.630;2022-12-11T02:25:02;-1.60;99.90
21123;DHT22;10719;48.130;11.630;2022-12-11T02:27:43;-1.60;99.90
21123;DHT22;10719;48.130;11.630;2022-12-11T02:30:12;-1.60;99.90
21123;DHT22;10719;48.130;11.630;2022-12-11T02:32:55;-1.50;99.90
21123;DHT22;10719;48.130;11.630;2022-12-11T02:35:21;-1.60;99.90
21123;DHT22;10719;48.130;11.630;2022-12-11T02:37:56;-1.60;99.90
21123;DHT22;10719;48.130;11.630;2022-12-11T02:40:26;-1.70;99.90
21123;DHT22;10719;48.130;11.630;2022-12-11T02:42:55;-1.60;99.90
21123;DHT22;10719;48.130;11.630;2022-12-11T02:45:23;-1.70;99.90
21123;DHT22;10719;48.130;11.630;2022-12-11T02:47:51;-1.60;99.90
21123;DHT22;10719;48.130;11.630;2022-12-11T02:50:19;-1.60;99.90
21123;DHT22;10719;48.130;11.630;2022-12-11T02:52:47;-1.70;99.90
21123;DHT22;10719;48.130;11.630;2022-12-11T02:55:15;-1.70;99.90
21123;DHT22;10719;48.130;11.630;2022-12-11T02:58:03;-1.70;99.90
21123;DHT22;10719;48.130;11.630;2022-12-11T03:00:30;-1.70;99.90
21123;DHT22;10719;48.130;11.630;2022-12-11T03:02:56;-1.70;99.90
21123;DHT22;10719;48.130;11.630;2022-12-11T03:05:22;-1.70;99.90
21123;DHT22;10719;48.130;11.630;2022-12-11T03:07:48;-1.70;99.90
21123;DHT22;10719;48.130;11.630;2022-12-11T03:10:16;-1.60;99.90
21123;DHT22;10719;48.130;11.630;2022-12-11T03:12:45;-1.60;99.90
21123;DHT22;10719;48.130;11.630;2022-12-11T03:15:16;-1.60;99.90
21123;DHT22;10719;48.130;11.630;2022-12-11T03:20:44;-1.80;99.90
21123;DHT22;10719;48.130;11.630;2022-12-11T03:23:16;-1.80;99.90
21123;DHT22;10719;48.130;11.630;2022-12-11T03:25:55;-1.80;99.90
21123;DHT22;10719;48.130;11.630;2022-12-11T03:28:29;-1.80;99.90
21123;DHT22;10719;48.130;11.630;2022-12-11T03:31:02;-1.90;99.90
21123;DHT22;10719;48.130;11.630;2022-12-11T03:33:36;-1.90;99.90
21123;DHT22;10719;48.130;11.630;2022-12-11T03:36:18;-1.80;99.90
21123;DHT22;10719;48.130;11.630;2022-12-11T03:39:29;-1.90;99.90
21123;DHT22;10719;48.130;11.630;2022-12-11T03:41:54;-1.90;99.90
21123;DHT22;10719;48.130;11.630;2022-12-11T03:44:20;-1.90;99.90
21123;DHT22;10719;48.130;11.630;2022-12-11T03:46:48;-1.90;99.90
21123;DHT22;10719;48.130;11.630;2022-12-11T03:49:18;-1.90;99.90
21123;DHT22;10719;48.130;11.630;2022-12-11T03:51:47;-1.90;99.90
21123;DHT22;10719;48.130;11.630;2022-12-11T03:54:14;-2.00;99.90
21123;DHT22;10719;48.130;11.630;2022-12-11T03:56:42;-1.90;99.90
21123;DHT22;10719;48.130;11.630;2022-12-11T03:59:09;-1.90;99.90
21123;DHT22;10719;48.130;11.630;2022-12-11T04:01:35;-1.90;99.90
21123;DHT22;10719;48.130;11.630;2022-12-11T04:04:00;-2.00;99.90
21123;DHT22;10719;48.130;11.630;2022-12-11T04:06:26;-2.00;99.90
21123;DHT22;10719;48.130;11.630;2022-12-11T04:08:51;-2.00;99.90
21123;DHT22;10719;48.130;11.630;2022-12-11T04:11:17;-1.90;99.90
21123;DHT22;10719;48.130;11.630;2022-12-11T04:14:12;-1.90;99.90
21123;DHT22;10719;48.130;11.630;2022-12-11T04:16:59;-1.90;99.90
21123;DHT22;10719;48.130;11.630;2022-12-11T04:19:25;-1.90;99.90
21123;DHT22;10719;48.130;11.630;2022-12-11T04:22:13;-2.00;99.90
21123;DHT22;10719;48.130;11.630;2022-12-11T04:24:59;-2.00;99.90
21123;DHT22;10719;48.130;11.630;2022-12-11T04:27:24;-2.00;99.90
21123;DHT22;10719;48.130;11.630;2022-12-11T04:30:12;-2.00;99.90
21123;DHT22;10719;48.130;11.630;2022-12-11T04:32:38;-2.00;99.90
21123;DHT22;10719;48.130;11.630;2022-12-11T04:35:06;-2.00;99.90
21123;DHT22;10719;48.130;11.630;2022-12-11T04:37:33;-2.00;99.90
21123;DHT22;10719;48.130;11.630;2022-12-11T04:39:58;-2.00;99.90
21123;DHT22;10719;48.130;11.630;2022-12-11T04:42:24;-2.10;99.90
21123;DHT22;10719;48.130;11.630;2022-12-11T04:44:49;-2.10;99.90
21123;DHT22;10719;48.130;11.630;2022-12-11T04:47:15;-2.10;99.90
21123;DHT22;10719;48.130;11.630;2022-12-11T04:49:41;-2.00;99.90
21123;DHT22;10719;48.130;11.630;2022-12-11T04:52:06;-2.00;99.90
21123;DHT22;10719;48.130;11.630;2022-12-11T04:54:32;-2.20;99.90
21123;DHT22;10719;48.130;11.630;2022-12-11T04:56:57;-2.10;99.90
21123;DHT22;10719;48.130;11.630;2022-12-11T04:59:23;-2.10;99.90
21123;DHT22;10719;48.130;11.630;2022-12-11T05:01:49;-2.00;99.90
21123;DHT22;10719;48.130;11.630;2022-12-11T05:04:14;-2.00;99.90
21123;DHT22;10719;48.130;11.630;2022-12-11T05:06:40;-2.00;99.90
21123;DHT22;10719;48.130;11.630;2022-12-11T05:09:10;-2.00;99.90
21123;DHT22;10719;48.130;11.630;2022-12-11T05:11:35;-2.00;99.90
21123;DHT22;10719;48.130;11.630;2022-12-11T05:14:01;-2.00;99.90
21123;DHT22;10719;48.130;11.630;2022-12-11T05:16:26;-1.90;99.90
21123;DHT22;10719;48.130;11.630;2022-12-11T05:18:52;-1.90;99.90
21123;DHT22;10719;48.130;11.630;2022-12-11T05:21:18;-1.90;99.90
21123;DHT22;10719;48.130;11.630;2022-12-11T05:23:44;-1.90;99.90
21123;DHT22;10719;48.130;11.630;2022-12-11T05:26:17;-1.90;99.90
21123;DHT22;10719;48.130;11.630;2022-12-11T05:28:44;-1.90;99.90
21123;DHT22;10719;48.130;11.630;2022-12-11T05:31:14;-1.90;99.90
21123;DHT22;10719;48.130;11.630;2022-12-11T05:33:40;-1.90;99.90
21123;DHT22;10719;48.130;11.630;2022-12-11T05:36:07;-1.90;99.90
21123;DHT22;10719;48.130;11.630;2022-12-11T05:38:33;-1.90;99.90
21123;DHT22;10719;48.130;11.630;2022-12-11T05:41:01;-1.90;99.90
21123;DHT22;10719;48.130;11.630;2022-12-11T05:43:28;-1.90;99.90
21123;DHT22;10719;48.130;11.630;2022-12-11T05:45:55;-1.80;99.90
21123;DHT22;10719;48.130;11.630;2022-12-11T05:48:21;-1.80;99.90
21123;DHT22;10719;48.130;11.630;2022-12-11T05:50:57;-1.80;99.90
21123;DHT22;10719;48.130;11.630;2022-12-11T05:53:23;-1.80;99.90
21123;DHT22;10719;48.130;11.630;2022-12-11T05:55:49;-1.80;99.90
21123;DHT22;10719;48.130;11.630;2022-12-11T05:58:15;-1.90;99.90
21123;DHT22;10719;48.130;11.630;2022-12-11T06:00:41;-1.80;99.90
21123;DHT22;10719;48.130;11.630;2022-12-11T06:03:06;-1.80;99.90
21123;DHT22;10719;48.130;11.630;2022-12-11T06:05:37;-1.80;99.90
21123;DHT22;10719;48.130;11.630;2022-12-11T06:08:02;-1.80;99.90
21123;DHT22;10719;48.130;11.630;2022-12-11T06:10:28;-1.80;99.90
21123;DHT22;10719;48.130;11.630;2022-12-11T06:12:53;-1.90;99.90
21123;DHT22;10719;48.130;11.630;2022-12-11T06:15:20;-1.90;99.90
21123;DHT22;10719;48.130;11.630;2022-12-11T06:17:45;-1.90;99.90
21123;DHT22;10719;48.130;11.630;2022-12-11T06:20:11;-1.90;99.90
21123;DHT22;10719;48.130;11.630;2022-12-11T06:22:36;-1.90;99.90
21123;DHT22;10719;48.130;11.630;2022-12-11T06:25:02;-1.90;99.90
21123;DHT22;10719;48.130;11.630;2022-12-11T06:27:28;-1.90;99.90
21123;DHT22;10719;48.130;11.630;2022-12-11T06:29:53;-2.00;99.90
21123;DHT22;10719;48.130;11.630;2022-12-11T06:32:19;-2.00;99.90
21123;DHT22;10719;48.130;11.630;2022-12-11T06:34:44;-1.90;99.90
21123;DHT22;10719;48.130;11.630;2022-12-11T06:37:10;-1.90;99.90
21123;DHT22;10719;48.130;11.630;2022-12-11T06:39:36;-1.90;99.90
21123;DHT22;10719;48.130;11.630;2022-12-11T06:42:01;-1.90;99.90
21123;DHT22;10719;48.130;11.630;2022-12-11T06:44:27;-1.80;99.90
21123;DHT22;10719;48.130;11.630;2022-12-11T06:46:52;-1.90;99.90
21123;DHT22;10719;48.130;11.630;2022-12-11T06:49:18;-1.90;99.90
21123;DHT22;10719;48.130;11.630;2022-12-11T06:51:44;-2.00;99.90
21123;DHT22;10719;48.130;11.630;2022-12-11T06:54:09;-2.10;99.90
21123;DHT22;10719;48.130;11.630;2022-12-11T06:56:35;-2.00;99.90
21123;DHT22;10719;48.130;11.630;2022-12-11T06:59:00;-2.00;99.90
21123;DHT22;10719;48.130;11.630;2022-12-11T07:01:27;-2.00;99.90
21123;DHT22;10719;48.130;11.630;2022-12-11T07:03:56;-1.90;99.90
21123;DHT22;10719;48.130;11.630;2022-12-11T07:06:23;-2.00;99.90
21123;DHT22;10719;48.130;11.630;2022-12-11T07:08:49;-2.00;99.90
21123;DHT22;10719;48.130;11.630;2022-12-11T07:11:16;-2.10;99.90
21123;DHT22;10719;48.130;11.630;2022-12-11T07:13:42;-2.00;99.90
21123;DHT22;10719;48.130;11.630;2022-12-11T07:16:11;-2.00;99.90
21123;DHT22;10719;48.130;11.630;2022-12-11T07:18:38;-2.00;99.90
21123;DHT22;10719;48.130;11.630;2022-12-11T07:21:05;-2.00;99.90
21123;DHT22;10719;48.130;11.630;2022-12-11T07:23:31;-1.90;99.90
21123;DHT22;10719;48.130;11.630;2022-12-11T07:25:58;-1.90;99.90
21123;DHT22;10719;48.130;11.630;2022-12-11T07:28:24;-2.00;99.90
21123;DHT22;10719;48.130;11.630;2022-12-11T07:30:50;-2.00;99.90
21123;DHT22;10719;48.130;11.630;2022-12-11T07:33:19;-2.00;99.90
21123;DHT22;10719;48.130;11.630;2022-12-11T07:35:44;-2.00;99.90
21123;DHT22;10719;48.130;11.630;2022-12-11T07:38:10;-2.10;99.90
21123;DHT22;10719;48.130;11.630;2022-12-11T07:40:36;-2.00;99.90
21123;DHT22;10719;48.130;11.630;2022-12-11T07:43:01;-2.10;99.90
21123;DHT22;10719;48.130;11.630;2022-12-11T07:45:27;-2.10;99.90
21123;DHT22;10719;48.130;11.630;2022-12-11T07:47:52;-2.00;99.90
21123;DHT22;10719;48.130;11.630;2022-12-11T07:50:18;-2.00;99.90
21123;DHT22;10719;48.130;11.630;2022-12-11T07:52:44;-2.00;99.90
21123;DHT22;10719;48.130;11.630;2022-12-11T07:55:09;-1.80;99.90
21123;DHT22;10719;48.130;11.630;2022-12-11T07:57:35;-1.90;99.90
21123;DHT22;10719;48.130;11.630;2022-12-11T08:00:01;-1.90;99.90
21123;DHT22;10719;48.130;11.630;2022-12-11T08:02:26;-1.90;99.90
21123;DHT22;10719;48.130;11.630;2022-12-11T08:04:52;-1.90;99.90
21123;DHT22;10719;48.130;11.630;2022-12-11T08:07:18;-1.80;99.90
21123;DHT22;10719;48.130;11.630;2022-12-11T08:09:43;-1.80;99.90
21123;DHT22;10719;48.130;11.630;2022-12-11T08:12:09;-1.80;99.90
21123;DHT22;10719;48.130;11.630;2022-12-11T08:14:34;-1.80;99.90
21123;DHT22;10719;48.130;11.630;2022-12-11T08:17:00;-1.80;99.90
21123;DHT22;10719;48.130;11.630;2022-12-11T08:19:27;-1.80;99.90
21123;DHT22;10719;48.130;11.630;2022-12-11T08:21:52;-1.70;99.90
21123;DHT22;10719;48.130;11.630;2022-12-11T08:24:18;-1.70;99.90
21123;DHT22;10719;48.130;11.630;2022-12-11T08:26:45;-1.80;99.90
21123;DHT22;10719;48.130;11.630;2022-12-11T08:29:11;-1.70;99.90
21123;DHT22;10719;48.130;11.630;2022-12-11T08:31:39;-1.60;99.90
21123;DHT22;10719;48.130;11.630;2022-12-11T08:34:04;-1.70;99.90
21123;DHT22;10719;48.130;11.630;2022-12-11T08:36:30;-1.80;99.90
21123;DHT22;10719;48.130;11.630;2022-12-11T08:38:56;-1.70;99.90
21123;DHT22;10719;48.130;11.630;2022-12-11T08:41:24;-1.70;99.90
21123;DHT22;10719;48.130;11.630;2022-12-11T08:43:50;-1.60;99.90
21123;DHT22;10719;48.130;11.630;2022-12-11T08:46:25;-1.50;99.90
21123;DHT22;10719;48.130;11.630;2022-12-11T08:48:51;-1.60;99.90
21123;DHT22;10719;48.130;11.630;2022-12-11T08:51:21;-1.50;99.90
21123;DHT22;10719;48.130;11.630;2022-12-11T08:53:47;-1.50;99.90
21123;DHT22;10719;48.130;11.630;2022-12-11T08:56:15;-1.50;99.90
21123;DHT22;10719;48.130;11.630;2022-12-11T08:58:42;-1.50;99.90
21123;DHT22;10719;48.130;11.630;2022-12-11T09:01:19;-1.50;99.90
21123;DHT22;10719;48.130;11.630;2022-12-11T09:03:49;-1.20;99.90
21123;DHT22;10719;48.130;11.630;2022-12-11T09:06:17;-1.20;99.90
21123;DHT22;10719;48.130;11.630;2022-12-11T09:08:45;-1.20;99.90
21123;DHT22;10719;48.130;11.630;2022-12-11T09:11:16;-1.20;99.90
21123;DHT22;10719;48.130;11.630;2022-12-11T09:13:43;-1.30;99.90
21123;DHT22;10719;48.130;11.630;2022-12-11T09:16:11;-1.50;99.90
21123;DHT22;10719;48.130;11.630;2022-12-11T09:18:38;-1.50;99.90
21123;DHT22;10719;48.130;11.630;2022-12-11T09:21:12;-1.50;99.90
21123;DHT22;10719;48.130;11.630;2022-12-11T09:23:39;-1.20;99.90
21123;DHT22;10719;48.130;11.630;2022-12-11T09:26:11;-1.30;99.90
21123;DHT22;10719;48.130;11.630;2022-12-11T09:28:37;-1.10;99.90
21123;DHT22;10719;48.130;11.630;2022-12-11T09:31:10;-1.00;99.90
21123;DHT22;10719;48.130;11.630;2022-12-11T09:33:37;-0.90;99.90
21123;DHT22;10719;48.130;11.630;2022-12-11T09:36:03;-0.80;99.90
21123;DHT22;10719;48.130;11.630;2022-12-11T09:38:30;-0.90;99.90
21123;DHT22;10719;48.130;11.630;2022-12-11T09:40:56;-0.80;99.90
21123;DHT22;10719;48.130;11.630;2022-12-11T09:46:00;-0.80;99.90
21123;DHT22;10719;48.130;11.630;2022-12-11T09:48:28;-0.90;99.90
21123;DHT22;10719;48.130;11.630;2022-12-11T09:50:56;-1.10;99.90
21123;DHT22;10719;48.130;11.630;2022-12-11T09:53:29;-1.40;99.90
21123;DHT22;10719;48.130;11.630;2022-12-11T09:56:16;-1.10;99.90
21123;DHT22;10719;48.130;11.630;2022-12-11T10:04:47;-1.10;99.90
21123;DHT22;10719;48.130;11.630;2022-12-11T10:07:46;-1.10;99.90
21123;DHT22;10719;48.130;11.630;2022-12-11T10:12:51;-1.20;99.90
21123;DHT22;10719;48.130;11.630;2022-12-11T10:18:18;-1.10;99.90
21123;DHT22;10719;48.130;11.630;2022-12-11T10:20:51;-1.30;99.90
21123;DHT22;10719;48.130;11.630;2022-12-11T10:23:20;-1.20;99.90
21123;DHT22;10719;48.130;11.630;2022-12-11T10:25:53;-1.20;99.90
21123;DHT22;10719;48.130;11.630;2022-12-11T10:28:21;-1.20;99.90
21123;DHT22;10719;48.130;11.630;2022-12-11T10:33:40;-1.30;99.90
21123;DHT22;10719;48.130;11.630;2022-12-11T10:36:09;-1.40;99.90
21123;DHT22;10719;48.130;11.630;2022-12-11T10:38:41;-1.40;99.90
21123;DHT22;10719;48.130;11.630;2022-12-11T10:41:17;-1.30;99.90
21123;DHT22;10719;48.130;11.630;2022-12-11T10:43:46;-1.30;99.90
21123;DHT22;10719;48.130;11.630;2022-12-11T10:46:24;-1.30;99.90
21123;DHT22;10719;48.130;11.630;2022-12-11T10:48:52;-1.30;99.90
21123;DHT22;10719;48.130;11.630;2022-12-11T10:51:23;-1.30;99.90
21123;DHT22;10719;48.130;11.630;2022-12-11T10:53:54;-1.10;99.90
21123;DHT22;10719;48.130;11.630;2022-12-11T10:56:26;-1.10;99.90
21123;DHT22;10719;48.130;11.630;2022-12-11T10:58:52;-1.10;99.90
21123;DHT22;10719;48.130;11.630;2022-12-11T11:01:21;-1.00;99.90
21123;DHT22;10719;48.130;11.630;2022-12-11T11:03:57;-1.00;99.90
21123;DHT22;10719;48.130;11.630;2022-12-11T11:06:24;-1.10;99.90
21123;DHT22;10719;48.130;11.630;2022-12-11T11:08:56;-1.20;99.90
21123;DHT22;10719;48.130;11.630;2022-12-11T11:11:28;-1.50;99.90
21123;DHT22;10719;48.130;11.630;2022-12-11T11:14:23;-1.40;99.90
21123;DHT22;10719;48.130;11.630;2022-12-11T11:16:51;-1.30;99.90
21123;DHT22;10719;48.130;11.630;2022-12-11T11:19:26;-1.10;99.90
21123;DHT22;10719;48.130;11.630;2022-12-11T11:21:56;-1.10;99.90
21123;DHT22;10719;48.130;11.630;2022-12-11T11:24:37;-1.20;99.90
21123;DHT22;10719;48.130;11.630;2022-12-11T11:27:34;-1.00;99.90
21123;DHT22;10719;48.130;11.630;2022-12-11T11:30:04;-1.10;99.90
21123;DHT22;10719;48.130;11.630;2022-12-11T11:32:35;-1.20;99.90
21123;DHT22;10719;48.130;11.630;2022-12-11T11:37:37;-1.20;99.90
21123;DHT22;10719;48.130;11.630;2022-12-11T11:43:06;-1.40;99.90
21123;DHT22;10719;48.130;11.630;2022-12-11T11:45:52;-1.40;99.90
21123;DHT22;10719;48.130;11.630;2022-12-11T11:51:17;-1.40;99.90
21123;DHT22;10719;48.130;11.630;2022-12-11T11:53:49;-1.30;99.90
21123;DHT22;10719;48.130;11.630;2022-12-11T11:56:25;-1.40;99.90
21123;DHT22;10719;48.130;11.630;2022-12-11T12:01:21;-1.60;99.90
21123;DHT22;10719;48.130;11.630;2022-12-11T12:03:47;-1.50;99.90
21123;DHT22;10719;48.130;11.630;2022-12-11T12:11:40;-1.80;99.90
21123;DHT22;10719;48.130;11.630;2022-12-11T12:14:24;-1.70;99.90
21123;DHT22;10719;48.130;11.630;2022-12-11T12:30:13;-1.30;99.90
21123;DHT22;10719;48.130;11.630;2022-12-11T12:36:01;-1.40;99.90
21123;DHT22;10719;48.130;11.630;2022-12-11T12:39:03;-1.60;99.90
21123;DHT22;10719;48.130;11.630;2022-12-11T12:44:23;-0.70;99.90
21123;DHT22;10719;48.130;11.630;2022-12-11T12:46:59;-0.70;99.90
21123;DHT22;10719;48.130;11.630;2022-12-11T12:49:42;-0.50;99.90
21123;DHT22;10719;48.130;11.630;2022-12-11T12:52:23;-0.40;99.90
21123;DHT22;10719;48.130;11.630;2022-12-11T12:54:54;-0.80;99.90
21123;DHT22;10719;48.130;11.630;2022-12-11T12:57:59;-0.80;99.90
21123;DHT22;10719;48.130;11.630;2022-12-11T13:00:26;-1.00;99.90
21123;DHT22;10719;48.130;11.630;2022-12-11T13:02:52;-1.00;99.90
21123;DHT22;10719;48.130;11.630;2022-12-11T13:05:23;-0.90;99.90
21123;DHT22;10719;48.130;11.630;2022-12-11T13:07:54;-0.90;99.90
21123;DHT22;10719;48.130;11.630;2022-12-11T13:10:30;-1.10;99.90
21123;DHT22;10719;48.130;11.630;2022-12-11T13:12:57;-1.10;99.90
21123;DHT22;10719;48.130;11.630;2022-12-11T13:15:35;-1.20;99.90
21123;DHT22;10719;48.130;11.630;2022-12-11T13:18:34;-1.10;99.90
21123;DHT22;10719;48.130;11.630;2022-12-11T13:21:02;-1.20;99.90
21123;DHT22;10719;48.130;11.630;2022-12-11T13:23:30;-1.40;99.90
21123;DHT22;10719;48.130;11.630;2022-12-11T13:26:01;-1.30;99.90
21123;DHT22;10719;48.130;11.630;2022-12-11T13:28:46;-1.10;99.90
21123;DHT22;10719;48.130;11.630;2022-12-11T13:33:46;-1.20;99.90
21123;DHT22;10719;48.130;11.630;2022-12-11T13:36:23;-1.40;99.90
21123;DHT22;10719;48.130;11.630;2022-12-11T13:38:57;-1.50;99.90
21123;DHT22;10719;48.130;11.630;2022-12-11T13:41:24;-1.50;99.90
21123;DHT22;10719;48.130;11.630;2022-12-11T13:43:50;-1.50;99.90
21123;DHT22;10719;48.130;11.630;2022-12-11T13:46:28;-1.50;99.90
21123;DHT22;10719;48.130;11.630;2022-12-11T13:48:58;-1.60;99.90
21123;DHT22;10719;48.130;11.630;2022-12-11T13:51:27;-1.40;99.90
21123;DHT22;10719;48.130;11.630;2022-12-11T13:54:12;-1.50;99.90
21123;DHT22;10719;48.130;11.630;2022-12-11T13:56:40;-1.50;99.90
21123;DHT22;10719;48.130;11.630;2022-12-11T13:59:40;-1.50;99.90
21123;DHT22;10719;48.130;11.630;2022-12-11T14:04:40;-1.40;99.90
21123;DHT22;10719;48.130;11.630;2022-12-11T14:07:09;-1.30;99.90
21123;DHT22;10719;48.130;11.630;2022-12-11T14:09:42;-1.40;99.90
21123;DHT22;10719;48.130;11.630;2022-12-11T14:12:15;-1.40;99.90
21123;DHT22;10719;48.130;11.630;2022-12-11T14:14:53;-1.40;99.90
21123;DHT22;10719;48.130;11.630;2022-12-11T14:17:29;-1.40;99.90
21123;DHT22;10719;48.130;11.630;2022-12-11T14:19:58;-1.50;99.90
21123;DHT22;10719;48.130;11.630;2022-12-11T14:22:26;-1.40;99.90
21123;DHT22;10719;48.130;11.630;2022-12-11T14:25:12;-1.40;99.90
21123;DHT22;10719;48.130;11.630;2022-12-11T14:27:50;-1.50;99.90
21123;DHT22;10719;48.130;11.630;2022-12-11T14:30:27;-1.70;99.90
21123;DHT22;10719;48.130;11.630;2022-12-11T14:32:57;-1.50;99.90
21123;DHT22;10719;48.130;11.630;2022-12-11T14:35:27;-1.60;99.90
21123;DHT22;10719;48.130;11.630;2022-12-11T14:37:53;-1.60;99.90
21123;DHT22;10719;48.130;11.630;2022-12-11T14:40:24;-1.50;99.90
21123;DHT22;10719;48.130;11.630;2022-12-11T14:42:57;-1.60;99.90
21123;DHT22;10719;48.130;11.630;2022-12-11T14:45:32;-1.60;99.90
21123;DHT22;10719;48.130;11.630;2022-12-11T14:48:00;-1.60;99.90
21123;DHT22;10719;48.130;11.630;2022-12-11T14:50:37;-1.70;99.90
21123;DHT22;10719;48.130;11.630;2022-12-11T14:53:12;-1.80;99.90
21123;DHT22;10719;48.130;11.630;2022-12-11T14:55:39;-1.90;99.90
21123;DHT22;10719;48.130;11.630;2022-12-11T14:58:22;-2.00;99.90
21123;DHT22;10719;48.130;11.630;2022-12-11T15:01:05;-2.00;99.90
21123;DHT22;10719;48.130;11.630;2022-12-11T15:03:31;-2.20;99.90
21123;DHT22;10719;48.130;11.630;2022-12-11T15:05:59;-2.20;99.90
21123;DHT22;10719;48.130;11.630;2022-12-11T15:13:32;-2.20;99.90
21123;DHT22;10719;48.130;11.630;2022-12-11T15:15:58;-2.20;99.90
21123;DHT22;10719;48.130;11.630;2022-12-11T15:20:55;-2.30;99.90
21123;DHT22;10719;48.130;11.630;2022-12-11T15:23:21;-2.40;99.90
21123;DHT22;10719;48.130;11.630;2022-12-11T15:25:52;-2.40;99.90
21123;DHT22;10719;48.130;11.630;2022-12-11T15:28:32;-2.20;99.90
21123;DHT22;10719;48.130;11.630;2022-12-11T15:31:00;-2.20;99.90
21123;DHT22;10719;48.130;11.630;2022-12-11T15:33:27;-2.20;99.90
21123;DHT22;10719;48.130;11.630;2022-12-11T15:36:04;-2.20;99.90
21123;DHT22;10719;48.130;11.630;2022-12-11T15:40:58;-2.30;99.90
21123;DHT22;10719;48.130;11.630;2022-12-11T15:43:24;-2.40;99.90
21123;DHT22;10719;48.130;11.630;2022-12-11T15:45:50;-2.30;99.90
21123;DHT22;10719;48.130;11.630;2022-12-11T15:48:16;-2.30;99.90
21123;DHT22;10719;48.130;11.630;2022-12-11T15:50:42;-2.30;99.90
21123;DHT22;10719;48.130;11.630;2022-12-11T15:53:08;-2.30;99.90
21123;DHT22;10719;48.130;11.630;2022-12-11T15:55:33;-2.30;99.90
21123;DHT22;10719;48.130;11.630;2022-12-11T15:58:04;-2.30;99.90
21123;DHT22;10719;48.130;11.630;2022-12-11T16:00:30;-2.30;99.90
21123;DHT22;10719;48.130;11.630;2022-12-11T16:02:57;-2.30;99.90
21123;DHT22;10719;48.130;11.630;2022-12-11T16:05:23;-2.30;99.90
21123;DHT22;10719;48.130;11.630;2022-12-11T16:07:49;-2.30;99.90
21123;DHT22;10719;48.130;11.630;2022-12-11T16:10:24;-2.30;99.90
21123;DHT22;10719;48.130;11.630;2022-12-11T16:12:50;-2.30;99.90
21123;DHT22;10719;48.130;11.630;2022-12-11T16:15:16;-2.20;99.90
21123;DHT22;10719;48.130;11.630;2022-12-11T16:17:42;-2.20;99.90
21123;DHT22;10719;48.130;11.630;2022-12-11T16:20:09;-2.20;99.90
21123;DHT22;10719;48.130;11.630;2022-12-11T16:22:35;-2.20;99.90
21123;DHT22;10719;48.130;11.630;2022-12-11T16:25:01;-2.20;99.90
21123;DHT22;10719;48.130;11.630;2022-12-11T16:27:27;-2.20;99.90
21123;DHT22;10719;48.130;11.630;2022-12-11T16:29:52;-2.30;99.90
21123;DHT22;10719;48.130;11.630;2022-12-11T16:32:18;-2.30;99.90
21123;DHT22;10719;48.130;11.630;2022-12-11T16:34:43;-2.30;99.90
21123;DHT22;10719;48.130;11.630;2022-12-11T16:37:09;-2.30;99.90
21123;DHT22;10719;48.130;11.630;2022-12-11T16:39:36;-2.30;99.90
21123;DHT22;10719;48.130;11.630;2022-12-11T16:42:03;-2.30;99.90
21123;DHT22;10719;48.130;11.630;2022-12-11T16:44:29;-2.30;99.90
21123;DHT22;10719;48.130;11.630;2022-12-11T16:46:55;-2.30;99.90
21123;DHT22;10719;48.130;11.630;2022-12-11T16:49:21;-2.20;99.90
21123;DHT22;10719;48.130;11.630;2022-12-11T16:51:47;-2.40;99.90